Time;durP1;ratioP1;P1;durP2;ratioP2;P2;SDS_P1;SDS_P2;PMS_P1;PMS_P2;Temp;Humidity;BMP_temperature;BMP_pressure;BME280_temperature;BME280_humidity;BME280_pressure;Samples;Min_cycle;Max_cycle;Signal;HPM_P1;HPM_P2
2021/12/03 00:01:35;;;;;;;11.93;9.20;;;3.70;99.90;;;;;;5059320;28;20231;-76
2021/12/03 00:04:21;;;;;;;12.85;10.30;;;3.70;99.90;;;;;;5068289;28;20482;-75
2021/12/03 00:07:06;;;;;;;11.98;9.20;;;3.70;99.90;;;;;;5064927;28;20577;-75
2021/12/03 00:09:52;;;;;;;12.73;10.50;;;3.80;99.90;;;;;;5065344;28;20208;-75
2021/12/03 00:12:39;;;;;;;12.13;9.75;;;3.80;99.90;;;;;;5079114;28;20227;-75
2021/12/03 00:15:26;;;;;;;12.32;9.43;;;3.80;99.90;;;;;;5070391;28;20330;-75
2021/12/03 00:18:12;;;;;;;10.88;9.45;;;3.70;99.90;;;;;;5070262;28;20204;-75
2021/12/03 00:21:01;;;;;;;13.50;9.70;;;3.70;99.90;;;;;;5059519;28;20223;-75
2021/12/03 00:23:46;;;;;;;13.15;9.60;;;3.80;99.90;;;;;;5070165;28;20196;-75
2021/12/03 00:26:32;;;;;;;11.00;8.60;;;3.70;99.90;;;;;;5068658;28;20526;-75
2021/12/03 00:29:19;;;;;;;8.70;7.20;;;3.70;99.90;;;;;;5065606;28;20278;-74
2021/12/03 00:32:05;;;;;;;9.10;8.13;;;3.70;99.90;;;;;;5065513;28;20222;-75
2021/12/03 00:34:51;;;;;;;11.20;8.30;;;3.70;99.90;;;;;;5074911;28;20207;-75
2021/12/03 00:37:37;;;;;;;12.02;9.00;;;3.80;99.90;;;;;;5062220;28;20282;-75
2021/12/03 00:40:25;;;;;;;11.30;9.20;;;3.80;99.90;;;;;;5065761;28;20217;-75
2021/12/03 00:43:11;;;;;;;13.70;10.43;;;3.70;99.90;;;;;;5067238;28;20410;-75
2021/12/03 00:46:04;;;;;;;14.52;9.70;;;3.60;99.90;;;;;;5072094;28;20343;-75
2021/12/03 00:48:53;;;;;;;16.33;10.65;;;3.70;99.90;;;;;;5062597;28;20293;-75
2021/12/03 00:51:38;;;;;;;11.88;9.23;;;3.70;99.90;;;;;;5069512;28;20246;-75
2021/12/03 00:54:24;;;;;;;13.10;8.82;;;3.70;99.90;;;;;;5058259;28;20224;-76
2021/12/03 00:57:10;;;;;;;12.48;9.30;;;3.80;99.90;;;;;;5062240;28;20216;-75
2021/12/03 00:59:56;;;;;;;13.82;8.80;;;3.80;99.90;;;;;;5065522;28;20571;-75
2021/12/03 01:02:43;;;;;;;11.32;8.88;;;3.80;99.90;;;;;;5076092;28;20228;-75
2021/12/03 01:05:29;;;;;;;12.45;8.73;;;3.80;99.90;;;;;;5069039;28;20203;-75
2021/12/03 01:08:15;;;;;;;11.20;8.70;;;3.90;99.90;;;;;;5075086;28;20219;-75
2021/12/03 01:11:00;;;;;;;10.55;8.80;;;3.90;99.90;;;;;;5067706;28;20201;-75
2021/12/03 01:13:47;;;;;;;12.93;9.13;;;3.90;99.90;;;;;;5070250;28;20566;-75
2021/12/03 01:16:33;;;;;;;11.82;9.50;;;3.90;99.90;;;;;;5078960;28;20204;-75
2021/12/03 01:19:20;;;;;;;12.80;9.43;;;3.90;99.90;;;;;;5063974;28;20197;-75
2021/12/03 01:22:06;;;;;;;12.48;9.18;;;3.80;99.90;;;;;;5070817;28;20240;-75
2021/12/03 01:24:52;;;;;;;14.18;9.18;;;3.90;99.90;;;;;;5080721;28;20219;-75
2021/12/03 01:27:38;;;;;;;14.05;9.82;;;3.80;99.90;;;;;;5070094;28;20298;-75
2021/12/03 01:30:24;;;;;;;10.98;8.75;;;3.60;99.90;;;;;;5070817;28;21404;-75
2021/12/03 01:33:10;;;;;;;12.63;8.93;;;3.70;99.90;;;;;;5077611;28;20615;-75
2021/12/03 01:35:57;;;;;;;11.65;8.65;;;3.70;99.90;;;;;;5066589;28;20205;-75
2021/12/03 01:38:43;;;;;;;10.18;8.50;;;3.60;99.90;;;;;;5069484;28;20196;-76
2021/12/03 01:41:32;;;;;;;11.18;7.68;;;3.50;99.90;;;;;;5068524;28;20232;-75
2021/12/03 01:44:18;;;;;;;9.95;8.30;;;3.50;99.90;;;;;;5073247;28;20713;-75
2021/12/03 01:47:04;;;;;;;12.15;9.00;;;3.50;99.90;;;;;;5074831;28;20196;-75
2021/12/03 01:49:50;;;;;;;11.02;8.85;;;3.50;99.90;;;;;;5068555;28;20327;-75
2021/12/03 01:52:38;;;;;;;10.48;8.75;;;3.50;99.90;;;;;;5081012;28;20309;-75
2021/12/03 01:55:25;;;;;;;10.30;8.07;;;3.50;99.90;;;;;;5071991;28;20569;-75
2021/12/03 01:58:11;;;;;;;10.40;7.50;;;3.40;99.90;;;;;;5069312;28;20196;-75
2021/12/03 02:01:00;;;;;;;11.18;7.93;;;3.30;99.90;;;;;;5071136;28;20335;-75
2021/12/03 02:03:53;;;;;;;10.55;7.75;;;3.30;99.90;;;;;;5072444;28;20275;-75
2021/12/03 02:06:39;;;;;;;13.75;8.43;;;3.20;99.90;;;;;;5076553;28;20570;-75
2021/12/03 02:09:26;;;;;;;9.00;8.00;;;3.20;99.90;;;;;;5068033;28;20689;-75
2021/12/03 02:12:12;;;;;;;14.70;8.93;;;3.10;99.90;;;;;;5067225;28;20248;-75
2021/12/03 02:14:58;;;;;;;9.70;7.72;;;3.00;99.90;;;;;;5070466;28;20207;-76
2021/12/03 02:17:43;;;;;;;12.50;9.00;;;3.00;99.90;;;;;;5070849;28;20726;-75
2021/12/03 02:20:29;;;;;;;10.90;8.25;;;3.10;99.90;;;;;;5069774;28;20207;-75
2021/12/03 02:23:17;;;;;;;8.63;7.32;;;3.10;99.90;;;;;;5101214;22;20608;-70
2021/12/03 02:26:04;;;;;;;10.07;6.38;;;3.10;99.90;;;;;;5081320;28;20681;-70
2021/12/03 02:28:51;;;;;;;9.00;7.45;;;3.00;99.90;;;;;;5088809;28;20290;-70
2021/12/03 02:31:37;;;;;;;8.88;7.10;;;3.00;99.90;;;;;;5084107;28;20238;-71
2021/12/03 02:34:23;;;;;;;12.60;8.85;;;2.90;99.90;;;;;;5071095;28;20712;-71
2021/12/03 02:37:09;;;;;;;11.02;8.40;;;2.70;99.90;;;;;;5066830;28;20204;-70
2021/12/03 02:39:56;;;;;;;9.23;8.07;;;2.60;99.90;;;;;;5064665;28;20259;-70
2021/12/03 02:42:42;;;;;;;12.13;9.55;;;2.60;99.90;;;;;;5068567;28;20869;-70
2021/12/03 02:45:28;;;;;;;11.65;8.20;;;2.70;99.90;;;;;;5065804;28;20227;-70
2021/12/03 02:48:14;;;;;;;11.63;9.50;;;2.70;99.90;;;;;;5064133;28;20355;-70
2021/12/03 02:51:00;;;;;;;11.88;9.43;;;2.60;99.90;;;;;;5069289;28;20567;-70
2021/12/03 02:53:46;;;;;;;11.27;9.05;;;2.50;99.90;;;;;;5065960;28;20219;-71
2021/12/03 02:56:33;;;;;;;13.43;10.25;;;2.50;99.90;;;;;;5069056;28;20680;-70
2021/12/03 02:59:18;;;;;;;11.65;8.45;;;2.40;99.90;;;;;;5067644;28;20230;-70
2021/12/03 03:02:04;;;;;;;12.50;9.90;;;2.40;99.90;;;;;;5062541;28;20725;-70
2021/12/03 03:04:51;;;;;;;16.25;11.10;;;2.40;99.90;;;;;;5066157;28;20561;-70
2021/12/03 03:07:37;;;;;;;11.55;10.20;;;2.30;99.90;;;;;;5062717;28;20228;-70
2021/12/03 03:10:28;;;;;;;14.25;10.95;;;2.30;99.90;;;;;;5058206;28;20200;-70
2021/12/03 03:13:15;;;;;;;11.90;9.35;;;2.30;99.90;;;;;;5065334;28;20230;-70
2021/12/03 03:16:01;;;;;;;19.92;11.20;;;2.30;99.90;;;;;;5066526;28;20203;-71
2021/12/03 03:18:47;;;;;;;14.38;10.32;;;2.40;99.90;;;;;;5065850;28;20679;-70
2021/12/03 03:21:33;;;;;;;10.25;8.68;;;2.40;99.90;;;;;;5069306;28;20235;-71
2021/12/03 03:24:19;;;;;;;12.73;8.70;;;2.40;99.90;;;;;;5055875;28;20200;-70
2021/12/03 03:27:06;;;;;;;17.33;9.23;;;2.50;99.90;;;;;;5065582;28;20323;-70
2021/12/03 03:29:54;;;;;;;12.23;9.82;;;2.60;99.90;;;;;;5061910;28;20216;-70
2021/12/03 03:32:40;;;;;;;12.65;10.70;;;2.50;99.90;;;;;;5067134;28;20694;-71
2021/12/03 03:35:26;;;;;;;10.68;8.95;;;2.40;99.90;;;;;;5066801;28;20692;-71
2021/12/03 03:38:12;;;;;;;17.83;8.90;;;2.50;99.90;;;;;;5064425;28;20562;-70
2021/12/03 03:40:59;;;;;;;11.50;8.27;;;2.50;99.90;;;;;;5065540;28;20208;-70
2021/12/03 03:43:45;;;;;;;10.70;8.95;;;2.50;99.90;;;;;;5064925;28;20244;-70
2021/12/03 03:46:32;;;;;;;13.48;9.18;;;2.40;99.90;;;;;;5065952;28;20243;-71
2021/12/03 03:49:18;;;;;;;11.05;9.18;;;2.30;99.90;;;;;;5063676;28;20351;-70
2021/12/03 03:52:05;;;;;;;9.73;8.60;;;2.20;99.90;;;;;;5067275;28;20266;-70
2021/12/03 03:54:51;;;;;;;10.73;9.25;;;2.20;99.90;;;;;;5064295;28;20213;-71
2021/12/03 03:57:36;;;;;;;16.20;10.30;;;2.10;99.90;;;;;;5064025;28;20273;-71
2021/12/03 04:00:25;;;;;;;18.13;9.88;;;2.10;99.90;;;;;;5068388;28;20200;-71
2021/12/03 04:03:14;;;;;;;12.60;9.85;;;2.10;99.90;;;;;;5070016;28;20223;-71
2021/12/03 04:06:00;;;;;;;16.02;10.70;;;2.10;99.90;;;;;;5064975;28;20216;-71
2021/12/03 04:08:48;;;;;;;9.68;8.25;;;2.10;99.90;;;;;;5067503;28;20217;-71
2021/12/03 04:11:33;;;;;;;11.15;9.35;;;2.10;99.90;;;;;;5068021;28;20306;-71
2021/12/03 04:14:19;;;;;;;11.30;8.70;;;2.00;99.90;;;;;;5068160;28;20204;-71
2021/12/03 04:17:06;;;;;;;14.90;9.05;;;1.90;99.90;;;;;;5062320;28;20547;-71
2021/12/03 04:19:53;;;;;;;12.20;8.90;;;2.00;99.90;;;;;;5070741;28;20196;-71
2021/12/03 04:22:39;;;;;;;16.85;10.27;;;1.80;99.90;;;;;;5068327;28;20255;-71
2021/12/03 04:25:26;;;;;;;11.05;9.18;;;1.80;99.90;;;;;;5064640;28;20205;-71
2021/12/03 04:28:11;;;;;;;13.30;8.50;;;1.90;99.90;;;;;;5067495;28;20283;-73
2021/12/03 04:30:57;;;;;;;12.73;9.82;;;1.90;99.90;;;;;;5057496;28;20570;-72
2021/12/03 04:33:43;;;;;;;13.27;8.60;;;1.80;99.90;;;;;;5069060;28;20196;-72
2021/12/03 04:36:30;;;;;;;11.27;7.78;;;1.80;99.90;;;;;;5057643;28;20212;-72
2021/12/03 04:39:16;;;;;;;10.57;8.63;;;1.80;99.90;;;;;;5066102;28;20258;-72
2021/12/03 04:42:02;;;;;;;10.90;8.88;;;1.70;99.90;;;;;;5063969;28;20250;-72
2021/12/03 04:44:48;;;;;;;12.48;9.45;;;1.60;99.90;;;;;;5065957;28;20205;-72
2021/12/03 04:47:35;;;;;;;9.50;7.75;;;1.50;99.90;;;;;;5065758;28;20283;-71
2021/12/03 04:50:23;;;;;;;12.43;9.60;;;1.40;99.90;;;;;;5065089;28;20220;-71
2021/12/03 04:53:11;;;;;;;11.20;8.07;;;1.40;99.90;;;;;;5062006;28;20223;-71
2021/12/03 04:55:56;;;;;;;10.18;8.45;;;1.40;99.90;;;;;;5066829;28;20781;-71
2021/12/03 04:58:42;;;;;;;10.18;7.22;;;1.40;99.90;;;;;;5062073;28;20276;-71
2021/12/03 05:01:27;;;;;;;9.77;7.07;;;1.40;99.90;;;;;;5065510;28;20291;-71
2021/12/03 05:04:13;;;;;;;12.80;7.93;;;1.40;99.90;;;;;;5067538;28;20281;-72
2021/12/03 05:07:05;;;;;;;10.98;8.98;;;1.30;99.90;;;;;;5061858;28;20204;-71
2021/12/03 05:09:52;;;;;;;13.00;8.82;;;1.30;99.90;;;;;;5060463;28;20275;-71
2021/12/03 05:12:39;;;;;;;13.18;10.13;;;1.40;99.90;;;;;;5063180;28;20236;-72
2021/12/03 05:15:24;;;;;;;9.65;7.40;;;1.30;99.90;;;;;;5064032;28;20228;-72
2021/12/03 05:18:12;;;;;;;10.38;7.60;;;1.30;99.90;;;;;;5063625;28;20576;-72
2021/12/03 05:21:01;;;;;;;12.48;8.90;;;1.10;99.90;;;;;;5065393;28;20566;-71
2021/12/03 05:23:46;;;;;;;11.40;7.95;;;1.20;99.90;;;;;;5063878;28;20327;-71
2021/12/03 05:26:33;;;;;;;9.98;7.00;;;1.20;99.90;;;;;;5065169;28;20258;-71
2021/12/03 05:29:19;;;;;;;11.45;7.60;;;1.30;99.90;;;;;;5064523;28;20227;-71
2021/12/03 05:32:06;;;;;;;9.43;7.63;;;1.30;99.90;;;;;;5063028;28;20232;-72
2021/12/03 05:34:52;;;;;;;10.27;7.60;;;1.30;99.90;;;;;;5061319;28;20205;-71
2021/12/03 05:37:38;;;;;;;13.23;7.60;;;1.30;99.90;;;;;;5061567;28;20207;-71
2021/12/03 05:40:23;;;;;;;14.75;7.85;;;1.30;99.90;;;;;;5067430;28;20200;-71
2021/12/03 05:43:10;;;;;;;9.05;7.38;;;1.30;99.90;;;;;;5060019;28;20267;-71
2021/12/03 05:45:56;;;;;;;9.25;7.00;;;1.30;99.90;;;;;;5061384;28;20200;-71
2021/12/03 05:48:42;;;;;;;11.25;6.50;;;1.30;99.90;;;;;;5060412;28;20303;-71
2021/12/03 05:51:28;;;;;;;11.38;7.45;;;1.30;99.90;;;;;;5068483;28;20224;-71
2021/12/03 05:54:14;;;;;;;9.50;7.72;;;1.10;99.90;;;;;;5064706;28;20587;-71
2021/12/03 05:57:00;;;;;;;10.65;8.23;;;1.00;99.90;;;;;;5068822;28;20262;-71
2021/12/03 05:59:47;;;;;;;11.88;8.35;;;1.00;99.90;;;;;;5070308;28;20200;-71
2021/12/03 06:02:32;;;;;;;12.02;9.60;;;1.00;99.90;;;;;;5062904;28;20219;-71
2021/12/03 06:05:18;;;;;;;10.80;6.88;;;1.00;99.90;;;;;;5066697;28;20200;-71
2021/12/03 06:08:04;;;;;;;12.90;8.90;;;1.00;99.90;;;;;;5066436;28;20583;-71
2021/12/03 06:10:50;;;;;;;12.55;7.80;;;0.90;99.90;;;;;;5067380;28;20355;-71
2021/12/03 06:13:39;;;;;;;9.73;7.40;;;0.80;99.90;;;;;;5065654;28;20543;-72
2021/12/03 06:16:26;;;;;;;13.23;7.30;;;0.90;99.90;;;;;;5067592;28;20331;-71
2021/12/03 06:19:12;;;;;;;11.13;7.75;;;0.90;99.90;;;;;;5071755;28;20670;-71
2021/12/03 06:21:57;;;;;;;9.45;7.18;;;1.10;99.90;;;;;;5065857;28;20593;-71
2021/12/03 06:24:43;;;;;;;7.20;6.45;;;1.10;99.90;;;;;;5065696;28;20591;-71
2021/12/03 06:27:30;;;;;;;9.85;7.90;;;1.00;99.90;;;;;;5070325;28;20571;-71
2021/12/03 06:30:18;;;;;;;12.05;7.10;;;0.90;99.90;;;;;;5067417;28;20231;-71
2021/12/03 06:33:05;;;;;;;11.45;8.40;;;0.80;99.90;;;;;;5070269;28;20797;-71
2021/12/03 06:35:51;;;;;;;13.73;8.15;;;0.70;99.90;;;;;;5068826;28;20751;-71
2021/12/03 06:38:38;;;;;;;10.95;8.65;;;0.70;99.90;;;;;;5069808;28;20335;-71
2021/12/03 06:41:24;;;;;;;9.00;7.03;;;0.70;99.90;;;;;;5069760;28;20227;-71
2021/12/03 06:44:10;;;;;;;9.82;7.68;;;0.70;99.90;;;;;;5064168;28;20767;-71
2021/12/03 06:46:55;;;;;;;10.27;7.78;;;0.70;99.90;;;;;;5070850;28;20207;-71
2021/12/03 06:49:43;;;;;;;12.23;7.63;;;0.70;99.90;;;;;;5068998;28;20710;-71
2021/12/03 06:52:28;;;;;;;10.02;7.25;;;0.80;99.90;;;;;;5065266;28;20232;-71
2021/12/03 06:55:15;;;;;;;9.90;6.80;;;0.70;99.90;;;;;;5067249;28;20220;-71
2021/12/03 06:58:00;;;;;;;10.65;8.00;;;0.70;99.90;;;;;;5072736;28;20208;-71
2021/12/03 07:00:47;;;;;;;16.65;7.88;;;0.70;99.90;;;;;;5067756;28;20278;-71
2021/12/03 07:03:33;;;;;;;11.60;6.38;;;0.80;99.90;;;;;;5060553;28;20792;-71
2021/12/03 07:06:20;;;;;;;8.40;5.85;;;0.80;99.90;;;;;;5067574;28;20199;-71
2021/12/03 07:09:06;;;;;;;16.00;6.97;;;0.80;99.90;;;;;;5065816;28;20239;-71
2021/12/03 07:11:52;;;;;;;7.78;6.18;;;0.70;99.90;;;;;;5064549;28;20729;-71
2021/12/03 07:14:38;;;;;;;10.95;6.50;;;0.80;99.90;;;;;;5064507;28;20239;-71
2021/12/03 07:17:23;;;;;;;9.93;6.93;;;0.80;99.90;;;;;;5070304;28;20211;-71
2021/12/03 07:20:11;;;;;;;8.45;6.60;;;0.80;99.90;;;;;;5064960;28;20203;-71
2021/12/03 07:22:58;;;;;;;10.00;6.93;;;0.90;99.90;;;;;;5063759;28;20270;-71
2021/12/03 07:25:44;;;;;;;10.25;6.30;;;0.90;99.90;;;;;;5064459;28;20201;-71
2021/12/03 07:28:30;;;;;;;11.25;7.93;;;0.90;99.90;;;;;;5067081;28;20196;-71
2021/12/03 07:31:16;;;;;;;9.85;6.57;;;1.00;99.90;;;;;;5066452;28;20196;-71
2021/12/03 07:34:01;;;;;;;9.38;7.20;;;1.00;99.90;;;;;;5065862;28;20696;-71
2021/12/03 07:36:47;;;;;;;15.02;6.95;;;1.00;99.90;;;;;;5068503;28;20371;-71
2021/12/03 07:39:34;;;;;;;7.88;6.13;;;1.00;99.90;;;;;;5066082;28;20207;-71
2021/12/03 07:42:19;;;;;;;10.60;7.45;;;0.90;99.90;;;;;;5067422;28;20227;-71
2021/12/03 07:45:08;;;;;;;11.48;6.75;;;0.90;99.90;;;;;;5066487;28;20212;-71
2021/12/03 07:47:53;;;;;;;16.02;6.43;;;0.70;99.90;;;;;;5064574;28;20205;-71
2021/12/03 07:50:41;;;;;;;13.57;8.15;;;0.80;99.90;;;;;;5067233;28;20343;-71
2021/12/03 07:53:27;;;;;;;8.68;6.63;;;0.90;99.90;;;;;;5061879;28;20224;-71
2021/12/03 07:56:14;;;;;;;13.38;9.18;;;0.90;99.90;;;;;;5066522;28;20311;-71
2021/12/03 07:59:00;;;;;;;16.13;7.13;;;0.90;99.90;;;;;;5068020;28;20204;-71
2021/12/03 08:01:47;;;;;;;9.85;7.05;;;1.00;99.90;;;;;;5066505;28;20227;-71
2021/12/03 08:04:33;;;;;;;11.55;7.97;;;1.10;99.90;;;;;;5067246;28;20730;-71
2021/12/03 08:07:18;;;;;;;10.35;6.70;;;1.20;99.90;;;;;;5064024;28;20773;-71
2021/12/03 08:10:05;;;;;;;11.00;7.03;;;1.30;99.90;;;;;;5062996;28;20225;-71
2021/12/03 08:12:52;;;;;;;15.07;8.65;;;1.20;99.90;;;;;;5063657;28;20229;-71
2021/12/03 08:15:38;;;;;;;11.70;8.25;;;1.30;99.90;;;;;;5068523;28;20327;-71
2021/12/03 08:18:24;;;;;;;20.92;10.50;;;1.30;99.90;;;;;;5065410;28;20204;-71
2021/12/03 08:21:09;;;;;;;15.25;9.63;;;1.40;99.90;;;;;;5064249;28;20275;-71
2021/12/03 08:23:55;;;;;;;13.50;8.85;;;1.50;99.90;;;;;;5065925;28;20200;-72
2021/12/03 08:26:40;;;;;;;22.67;11.30;;;1.50;99.90;;;;;;5064830;28;21871;-72
2021/12/03 08:29:28;;;;;;;17.10;9.65;;;1.70;99.90;;;;;;5062964;28;20720;-72
2021/12/03 08:32:13;;;;;;;17.70;10.13;;;1.80;99.90;;;;;;5064774;28;20257;-72
2021/12/03 08:34:59;;;;;;;14.77;9.98;;;1.90;99.90;;;;;;5064238;28;20297;-72
2021/12/03 08:37:47;;;;;;;18.48;10.85;;;2.00;99.90;;;;;;5069123;28;20195;-72
2021/12/03 08:40:33;;;;;;;14.25;10.05;;;2.10;99.90;;;;;;5068712;28;20196;-72
2021/12/03 08:43:18;;;;;;;18.17;9.30;;;2.10;99.90;;;;;;5063248;28;20223;-71
2021/12/03 08:46:10;;;;;;;22.80;9.65;;;2.10;99.90;;;;;;5068381;28;20203;-72
2021/12/03 08:49:05;;;;;;;11.80;9.63;;;2.20;99.90;;;;;;5068447;28;20571;-71
2021/12/03 08:52:12;;;;;;;21.58;10.48;;;2.10;99.90;;;;;;5067686;28;20278;-72
2021/12/03 08:54:58;;;;;;;14.07;9.45;;;2.10;99.90;;;;;;5066298;28;20665;-71
2021/12/03 08:57:44;;;;;;;15.85;10.60;;;2.10;99.90;;;;;;5064094;28;20203;-72
2021/12/03 09:00:30;;;;;;;15.10;9.75;;;2.10;99.90;;;;;;5066916;28;20207;-71
2021/12/03 09:03:17;;;;;;;20.90;10.00;;;2.10;99.90;;;;;;5065512;28;20224;-71
2021/12/03 09:06:03;;;;;;;16.35;10.25;;;2.20;99.90;;;;;;5067255;28;20828;-71
2021/12/03 09:08:49;;;;;;;12.95;9.18;;;2.10;99.90;;;;;;5066731;28;20208;-72
2021/12/03 09:11:35;;;;;;;13.15;8.57;;;2.20;99.90;;;;;;5059858;28;20717;-71
2021/12/03 09:14:25;;;;;;;20.85;9.80;;;2.30;99.90;;;;;;5065030;28;20760;-72
2021/12/03 09:17:31;;;;;;;22.58;9.90;;;2.20;99.90;;;;;;5068585;28;20200;-72
2021/12/03 09:20:30;;;;;;;14.07;9.48;;;2.10;99.90;;;;;;5061842;28;20552;-71
2021/12/03 09:23:19;;;;;;;13.80;11.00;;;2.00;99.90;;;;;;5069763;28;20779;-71
2021/12/03 09:26:08;;;;;;;16.33;10.95;;;2.10;99.90;;;;;;5070998;28;20637;-71
2021/12/03 09:29:00;;;;;;;23.45;11.00;;;2.10;99.90;;;;;;5072686;28;20195;-71
2021/12/03 09:31:48;;;;;;;15.82;10.38;;;2.10;99.90;;;;;;5067875;28;20231;-72
2021/12/03 09:34:35;;;;;;;16.45;9.35;;;2.20;99.90;;;;;;5068200;28;20200;-72
2021/12/03 09:37:22;;;;;;;24.17;11.00;;;2.20;99.90;;;;;;5067908;28;20200;-71
2021/12/03 09:40:09;;;;;;;23.55;11.68;;;2.30;99.90;;;;;;5067049;28;20200;-71
2021/12/03 09:42:55;;;;;;;12.80;9.15;;;2.30;99.90;;;;;;5066145;28;20223;-69
2021/12/03 09:45:48;;;;;;;13.07;9.40;;;2.30;99.90;;;;;;5070708;28;20200;-69
2021/12/03 09:48:45;;;;;;;13.32;8.77;;;2.30;99.90;;;;;;5068767;28;20220;-70
2021/12/03 09:51:36;;;;;;;15.07;9.60;;;2.40;99.90;;;;;;5067267;28;20244;-70
2021/12/03 09:54:27;;;;;;;14.98;8.57;;;2.40;99.90;;;;;;5070878;28;20701;-69
2021/12/03 09:57:18;;;;;;;12.80;8.65;;;2.50;99.90;;;;;;5072028;28;20267;-70
2021/12/03 10:00:16;;;;;;;11.18;8.35;;;2.60;99.90;;;;;;5067320;28;20220;-69
2021/12/03 10:03:27;;;;;;;11.93;8.90;;;2.60;99.90;;;;;;5066152;28;20345;-69
2021/12/03 10:12:53;;;;;;;19.92;8.55;;;2.70;99.90;;;;;;5068301;28;20258;-70
2021/12/03 10:15:58;;;;;;;10.73;8.15;;;2.70;99.90;;;;;;5065142;28;20221;-70
2021/12/03 10:18:47;;;;;;;19.45;8.23;;;2.70;99.90;;;;;;5069679;28;20192;-70
2021/12/03 10:28:20;;;;;;;17.42;7.60;;;2.80;99.90;;;;;;5070018;28;20224;-70
2021/12/03 10:31:49;;;;;;;10.57;7.70;;;2.90;99.90;;;;;;5064818;28;20586;-70
2021/12/03 10:44:02;;;;;;;13.13;7.13;;;2.90;99.90;;;;;;5062531;28;20197;-70
2021/12/03 10:47:05;;;;;;;11.85;7.90;;;2.80;99.90;;;;;;5071409;28;20258;-70
2021/12/03 10:50:09;;;;;;;17.67;6.65;;;2.80;99.90;;;;;;5063146;28;20568;-70
2021/12/03 10:53:08;;;;;;;11.30;7.70;;;2.90;99.90;;;;;;5057801;28;20754;-71
2021/12/03 11:18:32;;;;;;;13.85;8.23;;;2.80;99.90;;;;;;5064723;28;20254;-71
2021/12/03 12:00:14;;;;;;;8.65;6.80;;;2.70;99.90;;;;;;5066773;28;20604;-70
2021/12/03 12:09:59;;;;;;;8.27;6.53;;;2.90;99.90;;;;;;5045171;28;20254;-70
2021/12/03 14:48:51;;;;;;;10.65;6.55;;;3.70;99.90;;;;;;5054227;28;20276;-70
2021/12/03 14:51:54;;;;;;;10.32;7.00;;;3.70;99.90;;;;;;5052630;28;20228;-70
2021/12/03 14:54:56;;;;;;;9.90;6.60;;;3.80;99.90;;;;;;5046912;28;20200;-70
2021/12/03 14:57:45;;;;;;;13.68;8.93;;;3.70;99.90;;;;;;5052708;28;20243;-70
2021/12/03 15:00:35;;;;;;;12.63;6.65;;;3.50;99.90;;;;;;5037269;28;20271;-70
2021/12/03 15:03:43;;;;;;;10.55;7.60;;;3.50;99.90;;;;;;5045756;28;20564;-70
2021/12/03 15:06:36;;;;;;;13.15;6.60;;;3.50;99.90;;;;;;5041451;28;20313;-70
2021/12/03 15:09:27;;;;;;;10.73;7.55;;;3.50;99.90;;;;;;5050810;28;20209;-70
2021/12/03 15:12:37;;;;;;;12.65;6.95;;;3.50;99.90;;;;;;5038037;28;20198;-70
2021/12/03 15:31:01;;;;;;;10.82;6.78;;;3.60;99.90;;;;;;5024077;28;20289;-70
2021/12/03 15:33:58;;;;;;;9.27;7.00;;;3.70;99.90;;;;;;5035207;28;20279;-71
2021/12/03 15:37:02;;;;;;;14.13;6.60;;;3.70;99.90;;;;;;5024725;28;20202;-70
2021/12/03 16:04:40;;;;;;;10.73;7.13;;;3.40;99.90;;;;;;5030073;28;20196;-70
2021/12/03 16:07:52;;;;;;;10.05;7.45;;;3.40;99.90;;;;;;5033621;28;20292;-70
2021/12/03 16:10:47;;;;;;;15.52;7.70;;;3.40;99.90;;;;;;5027806;28;20222;-70
2021/12/03 16:13:43;;;;;;;11.15;7.22;;;3.30;99.90;;;;;;5031674;28;20605;-69
2021/12/03 16:44:21;;;;;;;15.38;5.72;;;3.70;99.90;;;;;;5032437;28;20559;-70
2021/12/03 16:47:15;;;;;;;9.98;6.45;;;3.60;99.90;;;;;;5036961;28;20591;-70
2021/12/03 16:53:21;;;;;;;10.13;6.05;;;3.60;99.90;;;;;;4983275;28;20565;-70
2021/12/03 16:56:10;;;;;;;9.27;6.00;;;3.60;99.90;;;;;;5035011;28;20278;-70
2021/12/03 16:58:57;;;;;;;7.88;6.13;;;3.70;99.90;;;;;;5027832;28;20253;-70
2021/12/03 17:01:47;;;;;;;8.40;6.13;;;3.70;99.90;;;;;;5040067;28;20406;-71
2021/12/03 17:11:13;;;;;;;8.27;5.50;;;3.90;99.90;;;;;;5031639;28;20220;-70
2021/12/03 17:29:46;;;;;;;8.05;4.60;;;3.90;99.90;;;;;;5032571;28;20340;-72
2021/12/03 17:48:27;;;;;;;7.78;5.22;;;3.80;99.90;;;;;;5031613;28;20288;-70
2021/12/03 17:57:26;;;;;;;11.65;4.82;;;3.90;99.90;;;;;;5034684;28;20569;-71
2021/12/03 18:00:20;;;;;;;13.27;5.38;;;3.90;99.90;;;;;;5032269;28;20726;-71
2021/12/03 18:03:09;;;;;;;8.02;4.72;;;3.90;99.90;;;;;;5027352;28;20263;-71
2021/12/03 18:06:10;;;;;;;11.88;5.00;;;3.80;99.90;;;;;;5022869;28;20206;-71
2021/12/03 18:09:04;;;;;;;8.95;4.97;;;3.80;99.90;;;;;;5031512;28;20673;-72
2021/12/03 18:46:08;;;;;;;9.35;5.35;;;4.00;99.90;;;;;;5039193;28;20711;-71
2021/12/03 18:55:04;;;;;;;8.55;5.72;;;4.00;99.90;;;;;;5037420;28;20200;-71
2021/12/03 18:57:56;;;;;;;8.27;4.65;;;4.00;99.90;;;;;;5039355;28;20580;-71
2021/12/03 19:00:46;;;;;;;7.72;5.45;;;4.10;99.90;;;;;;5035109;28;20248;-71
2021/12/03 19:03:45;;;;;;;6.57;4.70;;;4.20;99.90;;;;;;5046825;28;20213;-71
2021/12/03 19:06:35;;;;;;;8.32;5.25;;;4.20;99.90;;;;;;5037667;28;20213;-71
2021/12/03 19:09:24;;;;;;;8.63;5.15;;;4.10;99.90;;;;;;5043482;28;20582;-71
2021/12/03 19:12:13;;;;;;;7.90;5.32;;;4.10;99.90;;;;;;5013618;28;20210;-69
2021/12/03 19:15:00;;;;;;;7.82;4.60;;;4.10;99.90;;;;;;5024687;28;20206;-70
2021/12/03 19:17:48;;;;;;;10.10;4.50;;;4.00;99.90;;;;;;5031509;28;20197;-71
2021/12/03 19:20:37;;;;;;;9.88;5.13;;;4.00;99.90;;;;;;5031318;28;20225;-70
2021/12/03 19:23:23;;;;;;;6.90;5.05;;;4.00;99.90;;;;;;5025259;28;20411;-69
2021/12/03 19:26:09;;;;;;;14.27;5.20;;;4.00;99.90;;;;;;5028396;28;20562;-71
2021/12/03 19:28:55;;;;;;;8.13;5.10;;;4.00;99.90;;;;;;5031478;28;20208;-71
2021/12/03 19:31:44;;;;;;;8.13;5.13;;;4.00;99.90;;;;;;5033529;28;20709;-70
2021/12/03 19:34:31;;;;;;;11.52;5.85;;;4.00;99.90;;;;;;5030777;28;20209;-70
2021/12/03 19:37:17;;;;;;;6.57;4.38;;;4.00;99.90;;;;;;5032894;28;20205;-70
2021/12/03 19:40:07;;;;;;;13.05;6.30;;;4.00;99.90;;;;;;5046864;22;20224;-71
2021/12/03 19:42:57;;;;;;;10.00;5.72;;;4.10;99.90;;;;;;5010788;28;20586;-68
2021/12/03 19:45:49;;;;;;;10.18;4.65;;;4.00;99.90;;;;;;5008108;28;20561;-68
2021/12/03 19:48:39;;;;;;;8.05;5.05;;;4.00;99.90;;;;;;5009730;28;20671;-71
2021/12/03 19:51:28;;;;;;;9.95;5.55;;;4.10;99.90;;;;;;4993364;28;20223;-70
2021/12/03 19:54:14;;;;;;;12.73;5.85;;;4.00;99.90;;;;;;4974373;28;20683;-71
2021/12/03 19:57:00;;;;;;;8.98;5.07;;;4.10;99.90;;;;;;4982134;28;20210;-70
2021/12/03 19:59:46;;;;;;;7.55;4.72;;;4.10;99.90;;;;;;4987401;28;20203;-72
2021/12/03 20:02:32;;;;;;;11.15;5.53;;;4.10;99.90;;;;;;4979943;28;20238;-70
2021/12/03 20:05:18;;;;;;;7.18;5.32;;;4.10;99.90;;;;;;4986237;28;20695;-71
2021/12/03 20:08:07;;;;;;;7.78;5.65;;;4.10;99.90;;;;;;4987782;28;20354;-71
2021/12/03 20:10:57;;;;;;;5.93;4.65;;;4.10;99.90;;;;;;4982022;28;20635;-71
2021/12/03 20:13:46;;;;;;;7.82;4.80;;;4.10;99.90;;;;;;4983542;28;20202;-71
2021/12/03 20:16:35;;;;;;;9.98;5.40;;;4.10;99.90;;;;;;4986038;28;20704;-71
2021/12/03 20:19:30;;;;;;;14.13;6.90;;;4.10;99.90;;;;;;4981588;28;20298;-72
2021/12/03 20:22:19;;;;;;;11.75;5.32;;;4.10;99.90;;;;;;4984720;28;20230;-72
2021/12/03 20:25:21;;;;;;;8.40;4.53;;;4.20;99.90;;;;;;4983729;28;20215;-72
2021/12/03 20:28:08;;;;;;;6.65;4.82;;;4.20;99.90;;;;;;4986625;28;20202;-72
2021/12/03 20:31:00;;;;;;;9.40;5.15;;;4.20;99.90;;;;;;4979693;28;20219;-72
2021/12/03 20:34:03;;;;;;;8.40;4.97;;;4.20;99.90;;;;;;4986314;28;20207;-72
2021/12/03 20:36:51;;;;;;;6.57;4.32;;;4.10;99.90;;;;;;4984102;28;20231;-72
2021/12/03 20:39:40;;;;;;;4.72;3.78;;;4.10;99.90;;;;;;4981744;28;20735;-72
2021/12/03 20:42:30;;;;;;;6.80;4.25;;;4.20;99.90;;;;;;4989207;28;20227;-71
2021/12/03 20:45:32;;;;;;;5.57;4.10;;;4.10;99.90;;;;;;4983958;28;20780;-71
2021/12/03 20:48:28;;;;;;;7.03;4.15;;;4.10;99.90;;;;;;4981909;28;20203;-71
2021/12/03 20:51:30;;;;;;;6.95;3.83;;;4.10;99.90;;;;;;4980168;28;20292;-72
2021/12/03 20:54:24;;;;;;;9.38;4.30;;;4.10;99.90;;;;;;4983376;28;20202;-73
2021/12/03 20:57:19;;;;;;;8.50;4.32;;;4.20;99.90;;;;;;4982418;28;20210;-73
2021/12/03 21:09:19;;;;;;;6.68;3.97;;;4.30;99.90;;;;;;4981962;28;20206;-72
2021/12/03 21:12:10;;;;;;;4.13;3.72;;;4.30;99.90;;;;;;4985637;28;20588;-72
2021/12/03 21:15:03;;;;;;;4.75;3.40;;;4.20;99.90;;;;;;4981975;28;20586;-73
2021/12/03 21:18:04;;;;;;;8.43;4.05;;;4.30;99.90;;;;;;4980451;28;20262;-72
2021/12/03 21:20:54;;;;;;;5.00;3.63;;;4.30;99.90;;;;;;4983945;28;20226;-72
2021/12/03 21:23:43;;;;;;;8.57;4.82;;;4.30;99.90;;;;;;4979213;28;20298;-72
2021/12/03 21:26:31;;;;;;;7.63;4.13;;;4.30;99.90;;;;;;4985977;28;20207;-69
2021/12/03 21:29:26;;;;;;;6.95;4.93;;;4.30;99.90;;;;;;4981071;28;20784;-72
2021/12/03 21:32:21;;;;;;;6.40;4.15;;;4.30;99.90;;;;;;4984863;28;20226;-72